createdAt,value
2018-07-25T17:08:34.843Z,33.18
2018-07-25T17:11:03.963Z,33.20
2018-07-25T17:13:33.138Z,33.34
2018-07-25T17:16:02.416Z,33.13
2018-07-25T17:18:32.045Z,33.36
2018-07-25T17:21:01.265Z,33.40
2018-07-25T17:23:30.440Z,33.07
2018-07-25T17:25:59.752Z,33.05
2018-07-25T17:28:29.982Z,32.59
2018-07-25T17:30:59.275Z,32.67
2018-07-25T17:33:28.440Z,32.69
2018-07-25T17:35:57.629Z,32.41
2018-07-25T17:38:27.173Z,32.41
2018-07-25T17:40:56.366Z,32.28
2018-07-25T17:43:25.860Z,32.26
2018-07-25T17:45:55.092Z,32.28
2018-07-25T17:48:28.494Z,32.15
2018-07-25T17:50:57.990Z,32.05
2018-07-25T17:53:27.148Z,31.79
2018-07-25T17:55:56.130Z,31.76
2018-07-25T17:58:26.228Z,31.54
2018-07-25T18:00:55.408Z,31.34
2018-07-25T18:03:24.576Z,31.03
2018-07-25T18:05:53.727Z,30.81
2018-07-25T18:08:22.922Z,30.62
2018-07-25T18:10:52.141Z,30.47
2018-07-25T18:13:26.477Z,30.34
2018-07-25T18:15:55.643Z,30.13
2018-07-25T18:18:24.817Z,29.95
2018-07-25T18:20:53.951Z,29.77
2018-07-25T18:23:23.088Z,29.66
2018-07-25T18:25:52.307Z,29.62
2018-07-25T18:28:22.418Z,29.54
2018-07-25T18:30:51.530Z,29.46
2018-07-25T18:33:20.725Z,29.44
2018-07-25T18:35:49.931Z,29.45
2018-07-25T18:38:19.124Z,29.43
2018-07-25T18:40:54.628Z,29.34
2018-07-25T18:43:23.814Z,29.30
2018-07-25T18:45:53.048Z,29.31
2018-07-25T18:48:22.699Z,29.29
2018-07-25T18:50:52.468Z,29.22
2018-07-25T18:53:22.405Z,29.24
2018-07-25T18:55:52.513Z,29.21
2018-07-25T18:58:22.591Z,29.23
2018-07-25T19:00:52.107Z,29.20
2018-07-25T19:03:21.361Z,29.12
2018-07-25T19:05:50.555Z,29.16
2018-07-25T19:08:20.249Z,29.04
2018-07-25T19:10:49.377Z,29.07
2018-07-25T19:13:23.879Z,29.02
2018-07-25T19:15:53.060Z,29.03
2018-07-25T19:18:22.630Z,28.99
2018-07-25T19:20:52.104Z,29.03
2018-07-25T19:23:21.323Z,29.05
2018-07-25T19:25:50.419Z,28.98
2018-07-25T19:28:19.626Z,28.92
2018-07-25T19:30:48.906Z,28.96
2018-07-25T19:33:18.303Z,28.88
2018-07-25T19:35:47.440Z,28.88
2018-07-25T19:38:16.591Z,28.83
2018-07-25T19:40:45.858Z,28.73
2018-07-25T19:43:14.902Z,28.62
2018-07-25T19:45:44.008Z,28.52
2018-07-25T19:48:13.103Z,28.47
2018-07-25T19:50:42.325Z,28.40
2018-07-25T19:53:11.731Z,28.33
2018-07-25T19:55:40.898Z,28.24
2018-07-25T19:58:10.085Z,28.16
2018-07-25T20:00:39.248Z,28.20
2018-07-25T20:03:08.440Z,28.18
2018-07-25T20:05:37.560Z,28.08
2018-07-25T20:08:06.976Z,28.05
2018-07-25T20:10:36.157Z,27.96
2018-07-25T20:13:05.614Z,27.89
2018-07-25T20:15:40.228Z,27.85
2018-07-25T20:18:09.503Z,27.70
2018-07-25T20:20:38.528Z,27.63
2018-07-25T20:23:07.740Z,27.60
2018-07-25T20:25:37.028Z,27.53
2018-07-25T20:28:06.377Z,27.48
2018-07-25T20:30:35.562Z,27.38
2018-07-25T20:33:04.832Z,27.43
2018-07-25T20:35:33.973Z,27.33
2018-07-25T20:38:03.065Z,27.29
2018-07-25T20:40:32.325Z,27.29
2018-07-25T20:43:03.156Z,27.16
2018-07-25T20:45:33.488Z,27.12
2018-07-25T20:48:03.716Z,27.08
2018-07-25T20:50:34.149Z,27.11
2018-07-25T20:53:03.554Z,27.10
2018-07-25T20:55:32.945Z,27.09
2018-07-25T20:58:02.033Z,27.09
2018-07-25T21:00:36.418Z,26.99
2018-07-25T21:03:07.312Z,26.89
2018-07-25T21:05:36.497Z,26.94
2018-07-25T21:08:05.636Z,26.89
2018-07-25T21:10:34.837Z,26.88
2018-07-25T21:13:04.035Z,26.78
2018-07-25T21:15:33.400Z,26.84
2018-07-25T21:18:02.496Z,26.77
2018-07-25T21:20:31.735Z,26.78
2018-07-25T21:23:01.064Z,26.87
2018-07-25T21:25:30.262Z,26.77
2018-07-25T21:27:59.430Z,26.67
2018-07-25T21:30:28.625Z,26.60
2018-07-25T21:32:57.829Z,26.54
2018-07-25T21:35:26.994Z,26.57
2018-07-25T21:37:56.174Z,26.55
2018-07-25T21:40:25.332Z,26.53
2018-07-25T21:42:54.594Z,26.52
2018-07-25T21:45:23.748Z,26.42
2018-07-25T21:47:52.967Z,26.49
2018-07-25T21:50:22.191Z,26.39
2018-07-25T21:52:51.391Z,26.42
2018-07-25T21:55:20.560Z,26.36
2018-07-25T21:57:49.696Z,26.37
2018-07-25T22:00:19.762Z,26.30
2018-07-25T22:02:49.009Z,26.32
2018-07-25T22:05:18.206Z,26.34
2018-07-25T22:07:47.320Z,26.24
2018-07-25T22:10:16.644Z,26.20
2018-07-25T22:12:45.898Z,26.09
2018-07-25T22:15:15.119Z,26.12
2018-07-25T22:17:45.436Z,26.06
2018-07-25T22:20:14.608Z,26.03
2018-07-25T22:22:43.768Z,25.99
2018-07-25T22:25:13.138Z,26.00
2018-07-25T22:27:42.234Z,25.93
2018-07-25T22:30:12.850Z,25.88
2018-07-25T22:32:41.994Z,25.84
2018-07-25T22:35:11.273Z,25.81
2018-07-25T22:37:41.817Z,25.92
2018-07-25T22:40:10.944Z,25.84
2018-07-25T22:42:40.157Z,25.84
2018-07-25T22:45:09.297Z,25.85
2018-07-25T22:47:38.583Z,25.76
2018-07-25T22:50:07.720Z,25.83
2018-07-25T22:52:36.912Z,25.75
2018-07-25T22:55:06.276Z,25.74
2018-07-25T22:57:35.406Z,25.68
2018-07-25T23:00:05.360Z,25.63
2018-07-25T23:02:34.612Z,25.59
2018-07-25T23:05:03.814Z,25.56
2018-07-25T23:07:32.960Z,25.48
2018-07-25T23:10:02.247Z,25.49
2018-07-25T23:12:31.411Z,25.45
2018-07-25T23:15:00.548Z,25.40
2018-07-25T23:17:29.754Z,25.41
2018-07-25T23:19:59.011Z,25.43
2018-07-25T23:22:28.135Z,25.38
2018-07-25T23:24:57.265Z,25.31
2018-07-25T23:27:26.399Z,25.29
2018-07-25T23:29:55.597Z,25.22
2018-07-25T23:32:24.680Z,25.22
2018-07-25T23:34:53.786Z,25.13
2018-07-25T23:37:22.895Z,25.13
2018-07-25T23:39:52.088Z,25.05
2018-07-25T23:42:21.207Z,25.00
2018-07-25T23:44:50.485Z,24.99
2018-07-25T23:47:19.687Z,25.05
2018-07-25T23:49:48.883Z,25.00
2018-07-25T23:52:18.083Z,24.92
2018-07-25T23:54:47.189Z,24.90
2018-07-25T23:57:16.272Z,24.84
2018-07-25T23:59:45.480Z,24.82
